Time;durP1;ratioP1;P1;durP2;ratioP2;P2;SDS_P1;SDS_P2;PMS_P1;PMS_P2;Temp;Humidity;BMP_temperature;BMP_pressure;BME280_temperature;BME280_humidity;BME280_pressure;Samples;Min_cycle;Max_cycle;Signal;HPM_P1;HPM_P2
2023/03/07 00:02:20;;;;;;;46.80;21.83;;;;;;;8.97;82.37;99694.81;4953334;28;20406;-67
2023/03/07 00:04:48;;;;;;;40.20;20.00;;;;;;;9.03;81.73;99699.09;4955779;29;20055;-67
2023/03/07 00:07:15;;;;;;;41.83;21.13;;;;;;;9.16;81.26;99692.13;4956003;29;20505;-68
2023/03/07 00:09:42;;;;;;;48.20;21.98;;;;;;;9.11;81.27;99698.47;4955766;29;20058;-67
2023/03/07 00:12:10;;;;;;;36.83;19.67;;;;;;;9.22;81.07;99695.59;4955789;29;20054;-67
2023/03/07 00:14:38;;;;;;;41.28;21.42;;;;;;;8.98;82.89;99690.97;4955173;29;20524;-67
2023/03/07 00:17:06;;;;;;;42.10;21.35;;;;;;;8.83;82.84;99694.69;4953711;29;20043;-67
2023/03/07 00:19:34;;;;;;;45.78;21.45;;;;;;;8.90;82.57;99699.81;4936092;29;20059;-67
2023/03/07 00:22:02;;;;;;;46.58;22.27;;;;;;;8.79;83.39;99694.44;4935439;29;20062;-68
2023/03/07 00:24:30;;;;;;;41.85;21.92;;;;;;;8.83;83.12;99694.69;4936903;29;20044;-67
2023/03/07 00:26:58;;;;;;;46.00;21.95;;;;;;;8.90;82.46;99689.69;4935451;29;20067;-67
2023/03/07 00:29:26;;;;;;;40.83;21.10;;;;;;;8.93;82.03;99699.19;4935678;29;20060;-68
2023/03/07 00:31:54;;;;;;;39.95;21.20;;;;;;;9.03;81.89;99699.09;4943281;29;20043;-68
2023/03/07 00:34:22;;;;;;;39.53;21.15;;;;;;;8.82;82.21;99691.16;4954465;29;20055;-67
2023/03/07 00:36:51;;;;;;;42.25;21.30;;;;;;;8.71;83.77;99687.72;4939966;29;20051;-68
2023/03/07 00:39:19;;;;;;;42.25;22.38;;;;;;;8.63;83.22;99690.25;4935340;29;20060;-68
2023/03/07 00:41:47;;;;;;;47.83;23.00;;;;;;;8.59;84.52;99688.13;4950790;29;20434;-68
2023/03/07 00:44:15;;;;;;;47.15;22.75;;;;;;;8.43;84.49;99683.88;4954914;29;20380;-68
2023/03/07 00:46:43;;;;;;;47.25;23.73;;;;;;;8.31;85.84;99687.81;4953684;29;20414;-68
2023/03/07 00:49:11;;;;;;;42.97;21.65;;;;;;;8.19;85.92;99681.91;4954647;29;20054;-67
2023/03/07 00:51:39;;;;;;;45.28;23.60;;;;;;;7.99;86.63;99672.00;4952627;29;20062;-67
2023/03/07 00:54:07;;;;;;;39.45;22.27;;;;;;;7.87;87.11;99673.16;4920218;29;20063;-67
2023/03/07 00:56:36;;;;;;;41.63;23.40;;;;;;;7.79;88.72;99666.41;4937403;29;20052;-67
2023/03/07 00:59:04;;;;;;;46.33;24.38;;;;;;;7.79;88.44;99671.06;4919471;29;20411;-67
2023/03/07 01:01:32;;;;;;;44.58;22.63;;;;;;;7.85;88.15;99671.81;4923853;29;20059;-67
2023/03/07 01:04:00;;;;;;;44.35;23.75;;;;;;;7.83;88.51;99668.59;4935869;29;20070;-67
2023/03/07 01:06:30;;;;;;;49.75;23.90;;;;;;;7.78;88.58;99662.06;4935007;29;20411;-67
2023/03/07 01:09:00;;;;;;;44.83;23.85;;;;;;;7.72;89.11;99662.41;4935491;29;20384;-67
2023/03/07 01:11:30;;;;;;;46.40;23.83;;;;;;;7.70;89.32;99668.13;4935981;29;20399;-67
2023/03/07 01:13:59;;;;;;;45.08;23.60;;;;;;;7.65;89.07;99660.00;4934827;29;20570;-68
2023/03/07 01:16:33;;;;;;;46.00;23.35;;;;;;;7.71;89.33;99661.59;4918099;29;20079;-68
2023/03/07 01:19:04;;;;;;;46.88;23.08;;;;;;;7.68;89.46;99656.72;4947064;29;20054;-67
2023/03/07 01:21:38;;;;;;;46.22;22.70;;;;;;;7.60;89.55;99654.56;4936635;29;20054;-67
2023/03/07 01:24:09;;;;;;;47.80;24.60;;;;;;;7.52;89.25;99651.38;4953538;29;20494;-67
2023/03/07 01:26:37;;;;;;;44.22;24.13;;;;;;;7.44;90.10;99649.25;4935331;29;20375;-68
2023/03/07 01:29:06;;;;;;;43.63;24.25;;;;;;;7.45;90.25;99650.88;4917854;29;20052;-68
2023/03/07 01:31:36;;;;;;;47.90;23.75;;;;;;;7.48;90.76;99647.56;4918504;29;20052;-67
2023/03/07 01:34:05;;;;;;;46.58;22.80;;;;;;;7.55;89.95;99646.44;4917894;29;20055;-67
2023/03/07 01:36:36;;;;;;;44.83;23.00;;;;;;;7.51;90.64;99652.47;4918032;29;20435;-68
2023/03/07 01:39:09;;;;;;;47.75;23.38;;;;;;;7.57;90.49;99649.72;4923228;29;20042;-67
2023/03/07 01:41:41;;;;;;;48.22;24.60;;;;;;;7.52;89.88;99650.53;4918950;29;20048;-67
2023/03/07 01:44:19;;;;;;;48.67;23.73;;;;;;;7.48;89.84;99644.06;4920280;29;20040;-67
2023/03/07 01:46:54;;;;;;;48.63;24.88;;;;;;;7.51;89.66;99649.75;4954065;29;20376;-67
2023/03/07 01:49:41;;;;;;;48.92;24.25;;;;;;;7.50;90.24;99639.94;4936199;29;20522;-67
2023/03/07 01:52:17;;;;;;;47.33;25.10;;;;;;;7.38;90.70;99658.53;4946721;28;20054;-67
2023/03/07 01:54:55;;;;;;;42.80;23.98;;;;;;;7.31;90.85;99652.56;4956005;28;20426;-68
2023/03/07 01:57:28;;;;;;;50.17;24.40;;;;;;;7.22;92.16;99653.16;4941787;29;20051;-68
2023/03/07 02:00:00;;;;;;;45.80;24.48;;;;;;;7.23;91.90;99657.50;4936754;29;20485;-67
2023/03/07 02:02:28;;;;;;;46.55;23.95;;;;;;;7.25;91.94;99659.97;4936000;29;20051;-67
2023/03/07 02:05:10;;;;;;;47.28;23.73;;;;;;;7.18;92.36;99662.19;4953679;29;20054;-67
2023/03/07 02:07:43;;;;;;;46.72;24.30;;;;;;;7.21;92.47;99656.16;4936429;29;20050;-67
2023/03/07 02:10:14;;;;;;;50.67;23.05;;;;;;;7.23;92.74;99648.53;4955215;28;20054;-68
2023/03/07 02:12:44;;;;;;;45.65;23.92;;;;;;;7.21;92.94;99648.84;4972989;28;20051;-67
2023/03/07 02:15:13;;;;;;;54.72;25.08;;;;;;;7.16;93.34;99640.69;4955179;28;20054;-67
2023/03/07 02:17:42;;;;;;;43.58;22.30;;;;;;;7.15;93.59;99644.50;4972398;28;20384;-67
2023/03/07 02:20:14;;;;;;;52.13;23.00;;;;;;;7.07;93.23;99631.47;4955579;28;20050;-67
2023/03/07 02:22:43;;;;;;;43.88;23.67;;;;;;;7.06;92.75;99632.56;4934365;29;20052;-67
2023/03/07 02:25:30;;;;;;;52.70;24.05;;;;;;;7.10;93.50;99625.47;4934495;29;20056;-67
2023/03/07 02:28:00;;;;;;;42.60;23.23;;;;;;;7.11;93.45;99635.28;4919175;29;20055;-67
2023/03/07 02:30:28;;;;;;;41.17;22.33;;;;;;;7.08;93.80;99633.09;4934014;29;20052;-67
2023/03/07 02:32:56;;;;;;;50.00;23.83;;;;;;;7.10;93.83;99631.72;4934227;29;20529;-67
2023/03/07 02:35:25;;;;;;;50.45;24.48;;;;;;;7.09;93.67;99623.88;4917339;29;20058;-67
2023/03/07 02:38:02;;;;;;;49.45;24.52;;;;;;;7.10;94.31;99625.47;4917052;29;20415;-68
2023/03/07 02:40:31;;;;;;;45.00;23.30;;;;;;;7.14;94.21;99632.00;4917253;29;20060;-67
2023/03/07 02:43:08;;;;;;;52.40;23.48;;;;;;;7.21;93.54;99624.34;4917090;29;20090;-68
2023/03/07 02:45:39;;;;;;;48.72;23.23;;;;;;;7.22;92.39;99625.13;4921285;29;20047;-67
2023/03/07 02:48:06;;;;;;;47.35;23.23;;;;;;;7.23;92.23;99626.75;4938103;29;20056;-68
2023/03/07 02:50:35;;;;;;;44.55;23.23;;;;;;;7.24;93.56;99621.03;4937273;29;20055;-67
2023/03/07 02:53:03;;;;;;;48.58;24.63;;;;;;;7.32;93.55;99616.91;4920806;29;20051;-68
2023/03/07 02:55:32;;;;;;;50.75;25.45;;;;;;;7.39;93.06;99622.84;4939030;29;20062;-67
2023/03/07 02:58:03;;;;;;;47.17;23.48;;;;;;;7.39;93.08;99622.84;4938294;29;20036;-67
2023/03/07 03:00:31;;;;;;;49.13;25.27;;;;;;;7.31;93.49;99618.00;4937455;29;20067;-67
2023/03/07 03:02:59;;;;;;;52.70;25.58;;;;;;;7.26;93.51;99627.03;4937894;29;20059;-67
2023/03/07 03:05:27;;;;;;;50.42;25.33;;;;;;;7.17;94.11;99625.97;4937861;29;20047;-67
2023/03/07 03:07:55;;;;;;;53.67;25.25;;;;;;;7.16;94.80;99627.09;4920511;29;20427;-67
2023/03/07 03:10:23;;;;;;;55.30;25.13;;;;;;;7.15;95.07;99630.91;4937324;29;20056;-67
2023/03/07 03:12:51;;;;;;;50.45;25.85;;;;;;;7.26;94.84;99623.50;4937532;29;20051;-67
2023/03/07 03:15:19;;;;;;;49.65;26.23;;;;;;;7.30;94.49;99612.84;4937230;29;20055;-67
2023/03/07 03:17:47;;;;;;;64.20;28.98;;;;;;;7.28;95.00;99620.50;4927902;29;20051;-67
2023/03/07 03:20:15;;;;;;;59.22;29.33;;;;;;;7.31;94.65;99622.63;4956123;29;20051;-68
2023/03/07 03:22:43;;;;;;;61.90;28.17;;;;;;;7.35;94.20;99631.88;4955712;29;20063;-67
2023/03/07 03:25:13;;;;;;;56.35;27.48;;;;;;;7.43;94.93;99633.19;4923207;29;20043;-68
2023/03/07 03:27:43;;;;;;;57.67;27.42;;;;;;;7.43;94.38;99636.72;4938815;29;20066;-67
2023/03/07 03:30:12;;;;;;;63.70;28.55;;;;;;;7.50;93.76;99637.22;4937971;29;20047;-68
2023/03/07 03:32:42;;;;;;;57.80;29.42;;;;;;;7.57;93.56;99633.38;4938377;29;20051;-67
2023/03/07 03:35:13;;;;;;;58.55;30.63;;;;;;;7.53;93.85;99639.38;4939164;29;20062;-66
2023/03/07 03:37:42;;;;;;;64.40;31.35;;;;;;;7.62;94.07;99642.31;4938666;29;20062;-68
2023/03/07 03:40:13;;;;;;;60.03;29.05;;;;;;;7.74;92.75;99647.41;4932604;29;20069;-67
2023/03/07 03:42:44;;;;;;;61.80;31.50;;;;;;;7.77;93.30;99644.09;4919670;29;20056;-67
2023/03/07 03:45:16;;;;;;;51.95;27.70;;;;;;;7.79;92.53;99652.78;4920134;29;20383;-67
2023/03/07 03:47:44;;;;;;;51.05;25.85;;;;;;;7.63;92.46;99640.41;4936843;29;20071;-66
2023/03/07 03:50:12;;;;;;;59.33;25.77;;;;;;;7.76;91.40;99647.09;4931493;28;20050;-67
2023/03/07 03:52:40;;;;;;;47.65;25.38;;;;;;;7.88;90.68;99644.03;4975240;28;20065;-67
2023/03/07 03:55:08;;;;;;;52.10;25.42;;;;;;;7.77;90.64;99644.09;4962217;28;20410;-67
2023/03/07 03:57:37;;;;;;;50.22;24.15;;;;;;;7.87;89.96;99645.13;4938816;29;20047;-67
2023/03/07 04:00:08;;;;;;;42.63;22.63;;;;;;;7.66;90.50;99653.44;4939073;29;20399;-68
2023/03/07 04:02:39;;;;;;;49.43;23.77;;;;;;;7.65;90.45;99649.09;4939073;29;20047;-68
2023/03/07 04:05:12;;;;;;;46.65;23.48;;;;;;;7.49;91.34;99643.75;4939229;29;20314;-68
2023/03/07 04:07:40;;;;;;;49.85;25.27;;;;;;;7.44;91.80;99646.53;4952872;28;20046;-67
2023/03/07 04:10:08;;;;;;;45.85;24.27;;;;;;;7.38;92.45;99644.94;4974430;28;20051;-67
2023/03/07 04:12:36;;;;;;;47.45;24.67;;;;;;;7.39;92.41;99650.06;4957870;28;20074;-67
2023/03/07 04:15:06;;;;;;;48.70;22.45;;;;;;;7.28;93.19;99647.72;4956791;28;20055;-67
2023/03/07 04:17:34;;;;;;;51.42;26.13;;;;;;;7.23;92.77;99651.25;4974851;28;20046;-67
2023/03/07 04:20:04;;;;;;;48.78;25.20;;;;;;;7.21;93.56;99650.72;4942232;28;20043;-67
2023/03/07 04:22:33;;;;;;;53.53;27.05;;;;;;;7.24;93.71;99648.25;4944763;29;20055;-67
2023/03/07 04:25:01;;;;;;;50.67;25.05;;;;;;;7.26;93.69;99656.97;4938228;29;20066;-67
2023/03/07 04:27:29;;;;;;;59.03;26.40;;;;;;;7.19;93.84;99648.28;4954929;29;20051;-67
2023/03/07 04:29:58;;;;;;;55.47;25.58;;;;;;;7.06;94.92;99652.44;4955396;29;20513;-67
2023/03/07 04:32:26;;;;;;;54.42;26.65;;;;;;;6.97;96.05;99654.94;4954395;29;20070;-67
2023/03/07 04:34:54;;;;;;;57.50;28.25;;;;;;;6.97;95.85;99646.75;4937725;29;20051;-67
2023/03/07 04:37:22;;;;;;;57.10;28.15;;;;;;;7.01;96.03;99646.19;4935686;29;20062;-67
2023/03/07 04:39:50;;;;;;;56.15;26.85;;;;;;;6.96;95.95;99642.44;4937534;29;20051;-67
2023/03/07 04:42:18;;;;;;;54.28;26.98;;;;;;;6.93;96.33;99642.97;4926026;29;20048;-67
2023/03/07 04:44:46;;;;;;;57.00;27.80;;;;;;;6.95;96.22;99639.97;4918894;29;20044;-67
2023/03/07 04:47:14;;;;;;;53.13;27.38;;;;;;;6.87;96.84;99644.09;4935663;29;20106;-67
2023/03/07 04:49:43;;;;;;;51.00;26.15;;;;;;;6.88;96.85;99637.53;4920281;29;20054;-67
2023/03/07 04:52:11;;;;;;;51.35;26.08;;;;;;;6.86;96.71;99637.03;4926030;29;20043;-67
2023/03/07 04:54:39;;;;;;;54.50;27.38;;;;;;;6.89;96.25;99647.31;4933061;29;20525;-67
2023/03/07 04:57:08;;;;;;;51.83;26.60;;;;;;;6.67;97.27;99634.91;4918461;29;20055;-67
2023/03/07 04:59:38;;;;;;;51.03;27.60;;;;;;;6.65;97.61;99639.00;4919147;29;20047;-67
2023/03/07 05:02:10;;;;;;;55.67;27.25;;;;;;;6.56;97.37;99631.41;4918973;29;20048;-67
2023/03/07 05:04:38;;;;;;;49.15;26.00;;;;;;;6.58;97.84;99633.84;4936625;29;20048;-67
2023/03/07 05:07:07;;;;;;;53.80;27.30;;;;;;;6.58;97.62;99636.56;4917948;29;20039;-67
2023/03/07 05:09:36;;;;;;;54.28;27.23;;;;;;;6.68;96.57;99641.97;4918961;29;20509;-67
2023/03/07 05:12:04;;;;;;;58.80;26.63;;;;;;;6.55;97.71;99637.94;4918707;29;20052;-68
2023/03/07 05:14:32;;;;;;;48.45;25.88;;;;;;;6.54;97.92;99649.06;4918395;29;20052;-67
2023/03/07 05:17:01;;;;;;;51.55;26.13;;;;;;;6.57;98.14;99643.91;4919692;29;20063;-67
2023/03/07 05:19:29;;;;;;;53.60;27.30;;;;;;;6.77;97.10;99638.66;4951376;29;20507;-67
2023/03/07 05:21:57;;;;;;;56.13;28.73;;;;;;;6.77;96.93;99638.66;4922224;29;20052;-67
2023/03/07 05:24:25;;;;;;;55.25;27.70;;;;;;;6.91;96.53;99642.44;4936656;29;20066;-67
2023/03/07 05:26:53;;;;;;;57.88;27.73;;;;;;;6.90;96.61;99643.53;4934782;29;20062;-67
2023/03/07 05:29:22;;;;;;;59.90;27.30;;;;;;;6.93;96.24;99637.53;4936257;29;20062;-67
2023/03/07 05:31:50;;;;;;;54.03;28.85;;;;;;;6.87;96.08;99622.31;4936940;29;20035;-67
2023/03/07 05:34:18;;;;;;;60.63;29.70;;;;;;;6.81;96.40;99635.13;4935432;29;20520;-67
2023/03/07 05:36:47;;;;;;;57.88;28.88;;;;;;;6.88;96.43;99636.75;4920396;29;20047;-68
2023/03/07 05:39:16;;;;;;;57.33;29.38;;;;;;;6.90;95.76;99635.38;4902786;29;20054;-67
2023/03/07 05:41:44;;;;;;;58.83;27.30;;;;;;;7.03;94.92;99639.38;4934076;28;20056;-66
2023/03/07 05:44:13;;;;;;;51.53;26.08;;;;;;;6.96;94.16;99647.88;4917793;29;20051;-66
2023/03/07 05:46:41;;;;;;;57.97;27.42;;;;;;;6.78;94.38;99640.28;4922138;29;20070;-67
2023/03/07 05:49:09;;;;;;;51.78;27.50;;;;;;;6.74;94.94;99639.25;4952070;29;20683;-67
2023/03/07 05:51:37;;;;;;;55.08;27.23;;;;;;;6.57;95.45;99645.81;4925288;29;20051;-67
2023/03/07 05:54:05;;;;;;;56.95;29.02;;;;;;;6.53;95.84;99651.00;4922758;29;20043;-67
2023/03/07 05:56:34;;;;;;;57.83;28.08;;;;;;;6.52;96.41;99659.41;4934398;29;20066;-67
2023/03/07 05:59:02;;;;;;;56.25;26.27;;;;;;;6.53;95.81;99656.44;4953530;29;20526;-67
2023/03/07 06:01:30;;;;;;;48.28;25.48;;;;;;;6.48;95.64;99653.72;4924663;29;20048;-67
2023/03/07 06:03:59;;;;;;;48.55;25.95;;;;;;;6.47;95.79;99645.81;4932710;29;20047;-67
2023/03/07 06:06:26;;;;;;;51.35;25.98;;;;;;;6.57;95.92;99649.34;4933451;28;20495;-66
2023/03/07 06:08:54;;;;;;;55.17;26.42;;;;;;;6.51;96.89;99649.63;4943589;28;20055;-66
2023/03/07 06:11:22;;;;;;;54.10;26.73;;;;;;;6.51;96.89;99655.88;4946379;28;20491;-66
2023/03/07 06:13:50;;;;;;;55.72;26.70;;;;;;;6.61;96.23;99652.34;4951600;28;20043;-64
2023/03/07 06:16:18;;;;;;;57.47;27.90;;;;;;;6.61;96.48;99655.06;4929066;29;20047;-64
2023/03/07 06:18:46;;;;;;;55.90;27.50;;;;;;;6.51;96.42;99664.03;4925744;29;20056;-64
2023/03/07 06:21:16;;;;;;;56.40;27.92;;;;;;;6.59;95.71;99668.09;4945964;29;20065;-65
2023/03/07 06:23:46;;;;;;;58.70;28.77;;;;;;;6.62;96.07;99670.28;4929486;29;20063;-65
2023/03/07 06:26:18;;;;;;;53.22;27.75;;;;;;;6.69;95.67;99665.34;4929785;29;20046;-66
2023/03/07 06:28:50;;;;;;;54.40;27.40;;;;;;;6.84;96.12;99677.25;4918846;29;20055;-63
2023/03/07 06:31:19;;;;;;;56.03;28.48;;;;;;;7.04;95.15;99675.56;4927983;29;20048;-66
2023/03/07 06:33:47;;;;;;;56.35;29.67;;;;;;;7.26;93.99;99664.31;4934222;29;20051;-67
2023/03/07 06:36:18;;;;;;;54.92;26.20;;;;;;;7.44;92.97;99676.47;4920998;29;20048;-65
2023/03/07 06:38:49;;;;;;;51.30;24.38;;;;;;;7.68;92.02;99678.50;4932927;29;20513;-64
2023/03/07 06:41:18;;;;;;;48.63;25.20;;;;;;;7.75;90.23;99680.88;4932280;29;20426;-66
2023/03/07 06:43:52;;;;;;;49.08;24.35;;;;;;;7.58;89.92;99676.63;4930534;29;20066;-66
2023/03/07 06:46:25;;;;;;;40.55;22.85;;;;;;;7.82;87.83;99689.56;4931634;29;20052;-65
2023/03/07 06:48:55;;;;;;;48.10;23.25;;;;;;;7.59;88.68;99680.19;4934590;29;20047;-65
2023/03/07 06:51:23;;;;;;;55.10;24.92;;;;;;;7.53;89.58;99676.69;4935133;29;20043;-67
2023/03/07 06:53:54;;;;;;;47.78;25.77;;;;;;;7.41;89.94;99682.47;4935365;29;20399;-67
2023/03/07 06:56:22;;;;;;;57.70;29.02;;;;;;;7.23;90.84;99692.91;4951241;28;20054;-66
2023/03/07 06:58:50;;;;;;;53.47;24.70;;;;;;;7.26;91.46;99695.06;4951859;29;20528;-64
2023/03/07 07:01:20;;;;;;;55.85;27.10;;;;;;;7.42;91.24;99696.91;4944849;29;20589;-65
2023/03/07 07:03:50;;;;;;;59.78;27.70;;;;;;;7.70;90.68;99700.00;4929895;29;20044;-64
2023/03/07 07:06:19;;;;;;;45.63;25.73;;;;;;;8.22;87.95;99699.63;4948122;29;20055;-67
2023/03/07 07:08:53;;;;;;;51.95;24.98;;;;;;;8.68;85.83;99703.84;4932969;29;20051;-66
2023/03/07 07:11:23;;;;;;;53.58;26.55;;;;;;;8.90;84.72;99710.72;4934227;29;20051;-66
2023/03/07 07:13:51;;;;;;;58.33;25.55;;;;;;;9.20;84.37;99706.00;4900741;29;20046;-67
2023/03/07 07:16:19;;;;;;;51.90;26.20;;;;;;;9.53;82.93;99700.63;4933181;29;20040;-66
2023/03/07 07:18:51;;;;;;;54.78;25.80;;;;;;;10.00;82.14;99697.22;4919079;29;20054;-66
2023/03/07 07:21:20;;;;;;;48.85;24.05;;;;;;;10.15;80.52;99707.09;4945570;29;20040;-66
2023/03/07 07:23:49;;;;;;;49.40;23.15;;;;;;;10.24;79.54;99707.22;4932997;29;20051;-67
2023/03/07 07:26:17;;;;;;;49.15;23.73;;;;;;;10.36;80.19;99715.78;4928630;29;20032;-67
2023/03/07 07:28:45;;;;;;;49.08;23.80;;;;;;;10.27;78.33;99715.63;4915901;29;20402;-67
2023/03/07 07:31:13;;;;;;;48.05;23.88;;;;;;;10.30;79.75;99711.50;4955531;28;20504;-68
2023/03/07 07:33:42;;;;;;;42.30;24.08;;;;;;;10.51;79.19;99708.47;4923204;29;20044;-67
2023/03/07 07:36:11;;;;;;;54.75;25.48;;;;;;;10.12;80.58;99713.19;4953896;29;20050;-67
2023/03/07 07:38:39;;;;;;;49.25;23.90;;;;;;;9.85;82.19;99712.75;4938312;29;20036;-68
2023/03/07 07:41:06;;;;;;;49.20;23.85;;;;;;;10.09;81.50;99709.13;4929734;28;20050;-66
2023/03/07 07:43:35;;;;;;;44.90;22.67;;;;;;;10.35;79.58;99708.69;4919545;29;20051;-68
2023/03/07 07:46:16;;;;;;;50.03;22.98;;;;;;;10.59;80.41;99714.06;4934428;29;20399;-66
2023/03/07 07:48:46;;;;;;;54.15;25.90;;;;;;;11.26;77.52;99714.69;4935313;29;20035;-66
2023/03/07 07:51:16;;;;;;;50.70;24.33;;;;;;;10.87;77.06;99713.25;4951067;28;20047;-67
2023/03/07 07:53:44;;;;;;;46.47;25.17;;;;;;;10.91;76.04;99713.47;4935465;29;20454;-67
2023/03/07 07:56:12;;;;;;;54.78;24.80;;;;;;;11.04;76.18;99714.59;4937889;29;20039;-67
2023/03/07 07:58:40;;;;;;;51.38;25.83;;;;;;;11.02;77.13;99710.25;4955605;29;20474;-67
2023/03/07 08:01:17;;;;;;;52.15;24.92;;;;;;;11.47;74.25;99722.47;4923079;29;20051;-67
2023/03/07 08:03:45;;;;;;;56.83;25.70;;;;;;;11.95;71.64;99723.03;4955833;29;20051;-67
2023/03/07 08:06:19;;;;;;;53.65;24.67;;;;;;;12.14;71.72;99722.91;4955170;29;20058;-67
2023/03/07 08:08:48;;;;;;;55.83;27.17;;;;;;;12.35;71.44;99722.38;4955620;29;20058;-68
2023/03/07 08:11:17;;;;;;;47.92;25.60;;;;;;;12.38;70.46;99707.22;4955611;29;20402;-66
2023/03/07 08:13:45;;;;;;;50.03;25.20;;;;;;;11.89;72.15;99713.31;4955384;29;20055;-67
2023/03/07 08:16:21;;;;;;;57.45;25.35;;;;;;;11.42;74.72;99711.59;4954905;29;20138;-67
2023/03/07 08:18:53;;;;;;;;;;;;;;;11.45;74.85;99721.16;4955273;29;20055;-67
2023/03/07 08:21:25;;;;;;;50.65;25.45;;;;;;;11.53;75.26;99717.66;4955739;29;19933;-67
2023/03/07 08:23:54;;;;;;;48.58;26.23;;;;;;;12.16;72.18;99717.91;4955434;29;20055;-66
2023/03/07 08:26:22;;;;;;;54.83;26.73;;;;;;;12.22;72.28;99727.63;4955660;29;20047;-66
2023/03/07 08:28:50;;;;;;;48.78;24.80;;;;;;;11.88;72.32;99733.63;4955538;29;20047;-68
2023/03/07 08:31:24;;;;;;;54.38;25.50;;;;;;;11.66;73.04;99727.81;4955302;29;20047;-67
2023/03/07 08:33:52;;;;;;;46.90;24.77;;;;;;;11.76;72.85;99732.25;4955406;29;20054;-66
2023/03/07 08:36:20;;;;;;;46.17;25.13;;;;;;;11.80;72.75;99737.91;4955349;29;20375;-67
2023/03/07 08:38:53;;;;;;;54.83;26.58;;;;;;;11.87;73.70;99743.00;4954622;29;20529;-66
2023/03/07 08:41:22;;;;;;;52.97;24.77;;;;;;;12.16;72.82;99742.59;4936842;29;20059;-66
2023/03/07 08:43:50;;;;;;;52.20;25.83;;;;;;;12.20;70.72;99748.25;4955237;29;20043;-67
2023/03/07 08:46:18;;;;;;;51.85;26.08;;;;;;;12.07;72.53;99742.53;4953751;29;20073;-66
2023/03/07 08:48:46;;;;;;;53.25;25.55;;;;;;;12.03;71.39;99741.50;4955370;29;20390;-66
2023/03/07 08:51:16;;;;;;;47.58;24.33;;;;;;;12.36;69.89;99740.47;4953906;29;20066;-67
2023/03/07 08:53:45;;;;;;;48.63;25.50;;;;;;;12.81;70.10;99739.59;4954355;29;20066;-67
2023/03/07 08:56:15;;;;;;;50.25;25.65;;;;;;;13.01;68.38;99740.97;4954847;29;20035;-67
2023/03/07 08:58:44;;;;;;;47.00;24.63;;;;;;;13.16;68.31;99736.97;4954416;29;20445;-67
2023/03/07 09:01:12;;;;;;;46.00;22.63;;;;;;;13.65;65.20;99738.91;4954029;29;20063;-67
2023/03/07 09:03:41;;;;;;;46.38;22.73;;;;;;;13.01;66.27;99737.44;4955169;29;20051;-67
2023/03/07 09:06:18;;;;;;;51.45;23.73;;;;;;;12.74;69.59;99737.31;4954896;29;20043;-67
2023/03/07 09:08:47;;;;;;;53.70;24.25;;;;;;;13.06;67.78;99742.78;4954993;29;20475;-67
2023/03/07 09:11:16;;;;;;;57.95;27.35;;;;;;;12.74;69.01;99737.31;4953993;29;20537;-66
2023/03/07 09:13:44;;;;;;;48.90;24.30;;;;;;;13.37;67.48;99741.09;4953809;29;20055;-66
2023/03/07 09:16:20;;;;;;;45.17;21.80;;;;;;;12.73;69.96;99734.88;4954600;29;20410;-67
2023/03/07 09:18:48;;;;;;;55.40;25.92;;;;;;;13.25;69.06;99738.97;4937455;29;20047;-67
2023/03/07 09:21:16;;;;;;;48.55;23.67;;;;;;;13.35;68.40;99735.91;4937493;29;20050;-67
2023/03/07 09:23:44;;;;;;;47.53;23.42;;;;;;;13.87;67.48;99737.16;4954524;29;20040;-66
2023/03/07 09:26:12;;;;;;;47.80;22.48;;;;;;;14.05;66.13;99739.91;4954749;29;20043;-67
2023/03/07 09:28:40;;;;;;;47.00;23.60;;;;;;;13.70;66.95;99740.72;4954607;29;20051;-67
2023/03/07 09:31:10;;;;;;;46.85;23.77;;;;;;;13.83;67.79;99738.91;4954325;29;20054;-67
2023/03/07 09:33:40;;;;;;;44.97;23.35;;;;;;;14.13;64.65;99749.28;4954355;29;20114;-67
2023/03/07 09:36:10;;;;;;;43.05;22.88;;;;;;;14.18;66.42;99747.16;4936963;29;20054;-68
2023/03/07 09:38:38;;;;;;;46.60;23.42;;;;;;;14.02;65.56;99748.81;4954191;29;20406;-67
2023/03/07 09:41:16;;;;;;;44.10;23.98;;;;;;;14.00;66.36;99748.31;4954067;29;20065;-67
2023/03/07 09:43:55;;;;;;;43.80;23.08;;;;;;;13.65;66.74;99747.16;4954230;29;20073;-67
2023/03/07 09:47:12;;;;;;;42.85;22.75;;;;;;;13.90;67.90;99736.50;4954287;29;20051;-67
2023/03/07 09:49:51;;;;;;;39.53;21.75;;;;;;;14.68;63.58;99736.75;4954095;29;20050;-67
2023/03/07 09:52:22;;;;;;;40.92;21.80;;;;;;;14.54;62.31;99738.88;4953875;28;20054;-67
2023/03/07 09:55:12;;;;;;;46.22;22.27;;;;;;;15.12;61.67;99727.53;4953383;29;20051;-67
2023/03/07 09:57:49;;;;;;;47.08;22.42;;;;;;;14.94;60.44;99727.59;4954009;29;20047;-67
2023/03/07 10:00:17;;;;;;;39.78;21.50;;;;;;;15.42;58.96;99725.56;4954003;29;20047;-67
2023/03/07 10:03:06;;;;;;;42.40;23.90;;;;;;;15.16;58.90;99725.72;4953996;29;20047;-67
2023/03/07 10:05:38;;;;;;;41.47;21.05;;;;;;;15.51;60.23;99720.00;4947506;29;20047;-66
2023/03/07 10:08:14;;;;;;;36.70;21.15;;;;;;;16.14;56.98;99720.34;4950500;28;20505;-66
2023/03/07 10:10:52;;;;;;;37.88;21.33;;;;;;;16.20;56.73;99713.47;4953594;28;20452;-66
2023/03/07 10:13:28;;;;;;;45.47;21.65;;;;;;;15.40;58.60;99707.75;4953944;28;20403;-65
2023/03/07 10:16:17;;;;;;;41.50;21.45;;;;;;;16.01;57.77;99712.03;4950968;28;20043;-65
2023/03/07 10:19:09;;;;;;;37.53;19.50;;;;;;;15.95;57.16;99705.09;4951826;28;20058;-66
2023/03/07 10:21:56;;;;;;;38.90;20.95;;;;;;;16.75;55.12;99705.09;4939047;29;20043;-66
2023/03/07 10:24:49;;;;;;;40.63;19.58;;;;;;;16.34;54.24;99705.72;4951839;29;20055;-66
2023/03/07 10:27:21;;;;;;;36.60;20.63;;;;;;;16.43;53.62;99699.28;4952576;29;20062;-67
2023/03/07 10:29:52;;;;;;;41.78;22.90;;;;;;;16.02;55.46;99699.03;4951921;29;20058;-66
2023/03/07 10:32:28;;;;;;;43.92;22.60;;;;;;;15.09;60.31;99695.09;4947456;28;20062;-66
2023/03/07 10:35:12;;;;;;;41.33;21.13;;;;;;;15.73;58.07;99698.75;4954730;28;20058;-66
2023/03/07 10:38:02;;;;;;;42.88;20.90;;;;;;;16.25;58.18;99699.47;4954055;28;20437;-68
2023/03/07 10:40:40;;;;;;;42.53;20.67;;;;;;;16.21;57.42;99690.25;4950232;28;20507;-66
2023/03/07 10:43:30;;;;;;;40.50;22.35;;;;;;;16.70;55.25;99685.97;4934357;29;20055;-67
2023/03/07 10:46:15;;;;;;;39.25;20.20;;;;;;;16.99;53.17;99696.03;4953254;28;20040;-68
2023/03/07 10:49:15;;;;;;;37.15;20.23;;;;;;;17.69;51.42;99691.47;4951127;29;20047;-67
2023/03/07 10:52:25;;;;;;;45.67;21.00;;;;;;;17.15;53.77;99689.81;4946400;29;20055;-66
2023/03/07 10:54:54;;;;;;;34.53;18.38;;;;;;;16.59;54.09;99683.69;4951420;29;20491;-67
2023/03/07 10:57:31;;;;;;;34.83;18.58;;;;;;;16.42;53.41;99681.09;4952524;29;20054;-67
2023/03/07 11:00:12;;;;;;;37.03;20.10;;;;;;;17.23;50.64;99680.59;4951708;29;20478;-67
2023/03/07 11:02:46;;;;;;;37.80;16.73;;;;;;;17.38;51.92;99684.63;4952863;29;20051;-67
2023/03/07 11:05:35;;;;;;;32.53;17.52;;;;;;;17.58;49.36;99677.31;4953861;28;20043;-67
2023/03/07 11:08:27;;;;;;;33.20;16.77;;;;;;;17.94;47.46;99677.53;4953216;29;20050;-67
2023/03/07 11:10:55;;;;;;;33.92;16.67;;;;;;;17.82;47.23;99683.09;4951657;28;20482;-68
2023/03/07 11:13:23;;;;;;;33.75;17.02;;;;;;;17.86;48.40;99670.19;4965890;28;20054;-67
2023/03/07 11:16:08;;;;;;;35.83;17.13;;;;;;;17.81;49.54;99667.66;4956274;29;20058;-68
2023/03/07 11:18:42;;;;;;;30.45;15.68;;;;;;;17.82;47.75;99661.78;4946432;28;20051;-69
2023/03/07 11:21:25;;;;;;;29.40;15.38;;;;;;;17.46;47.63;99649.69;4937198;29;20048;-82
2023/03/07 11:24:23;;;;;;;29.08;14.45;;;;;;;17.10;48.62;99643.06;4944071;29;20047;-83
2023/03/07 11:26:56;;;;;;;32.35;14.00;;;;;;;16.86;49.16;99633.63;4930622;29;20062;-86
2023/03/07 11:29:27;;;;;;;24.47;13.10;;;;;;;16.69;49.25;99632.69;4939241;29;20399;-83
2023/03/07 11:32:04;;;;;;;26.73;14.52;;;;;;;16.46;49.67;99624.03;4949584;28;20402;-80
2023/03/07 11:35:05;;;;;;;27.02;13.95;;;;;;;15.88;52.29;99624.81;4964554;28;20054;-81
2023/03/07 11:37:38;;;;;;;25.13;14.07;;;;;;;16.43;51.17;99621.97;4973394;28;20165;-81
2023/03/07 11:40:12;;;;;;;24.40;13.80;;;;;;;16.69;50.74;99626.34;4955058;29;20059;-80
2023/03/07 11:42:50;;;;;;;31.05;14.27;;;;;;;16.24;50.48;99615.03;4951298;29;20047;-81